sensor_id;sensor_type;location;lat;lon;timestamp;temperature;humidity
21318;DHT22;10818;50.830;6.524;2023-01-29T00:03:14;-2.40;99.90
21318;DHT22;10818;50.830;6.524;2023-01-29T00:08:15;-2.50;99.90
21318;DHT22;10818;50.830;6.524;2023-01-29T00:13:15;-2.60;99.90
21318;DHT22;10818;50.830;6.524;2023-01-29T00:18:16;-2.60;99.90
21318;DHT22;10818;50.830;6.524;2023-01-29T00:23:16;-2.60;99.90
21318;DHT22;10818;50.830;6.524;2023-01-29T00:28:17;-2.60;99.90
21318;DHT22;10818;50.830;6.524;2023-01-29T00:33:17;-2.50;99.90
21318;DHT22;10818;50.830;6.524;2023-01-29T00:38:17;-2.40;99.90
21318;DHT22;10818;50.830;6.524;2023-01-29T00:43:18;-2.40;99.90
21318;DHT22;10818;50.830;6.524;2023-01-29T00:48:37;-2.60;99.90
21318;DHT22;10818;50.830;6.524;2023-01-29T00:53:37;-2.60;99.90
21318;DHT22;10818;50.830;6.524;2023-01-29T00:58:38;-2.60;99.90
21318;DHT22;10818;50.830;6.524;2023-01-29T01:03:38;-2.60;99.90
21318;DHT22;10818;50.830;6.524;2023-01-29T01:08:41;-2.70;99.90
21318;DHT22;10818;50.830;6.524;2023-01-29T01:14:00;-2.80;99.90
21318;DHT22;10818;50.830;6.524;2023-01-29T01:19:02;-2.80;99.90
21318;DHT22;10818;50.830;6.524;2023-01-29T01:24:03;-2.60;99.90
21318;DHT22;10818;50.830;6.524;2023-01-29T01:29:05;-2.70;99.90
21318;DHT22;10818;50.830;6.524;2023-01-29T01:34:05;-2.80;99.90
21318;DHT22;10818;50.830;6.524;2023-01-29T01:39:06;-2.90;99.90
21318;DHT22;10818;50.830;6.524;2023-01-29T01:44:06;-2.80;99.90
21318;DHT22;10818;50.830;6.524;2023-01-29T01:49:12;-2.90;99.90
21318;DHT22;10818;50.830;6.524;2023-01-29T01:54:18;-2.90;99.90
21318;DHT22;10818;50.830;6.524;2023-01-29T01:59:21;-2.90;99.90
21318;DHT22;10818;50.830;6.524;2023-01-29T02:04:23;-3.00;99.90
21318;DHT22;10818;50.830;6.524;2023-01-29T02:09:51;-3.10;99.90
21318;DHT22;10818;50.830;6.524;2023-01-29T02:14:52;-3.10;99.90
21318;DHT22;10818;50.830;6.524;2023-01-29T02:35:51;-3.20;99.90
21318;DHT22;10818;50.830;6.524;2023-01-29T02:40:57;-3.20;99.90
21318;DHT22;10818;50.830;6.524;2023-01-29T02:46:18;-3.20;99.90
21318;DHT22;10818;50.830;6.524;2023-01-29T02:51:25;-3.00;99.90
21318;DHT22;10818;50.830;6.524;2023-01-29T02:56:37;-3.20;99.90
21318;DHT22;10818;50.830;6.524;2023-01-29T03:01:47;-3.20;99.90
21318;DHT22;10818;50.830;6.524;2023-01-29T03:06:49;-3.30;99.90
21318;DHT22;10818;50.830;6.524;2023-01-29T03:11:53;-3.40;99.90
21318;DHT22;10818;50.830;6.524;2023-01-29T03:16:54;-3.40;99.90
21318;DHT22;10818;50.830;6.524;2023-01-29T03:21:56;-3.30;99.90
21318;DHT22;10818;50.830;6.524;2023-01-29T03:27:00;-3.30;99.90
21318;DHT22;10818;50.830;6.524;2023-01-29T03:32:20;-3.30;99.90
21318;DHT22;10818;50.830;6.524;2023-01-29T03:37:34;-3.30;99.90
21318;DHT22;10818;50.830;6.524;2023-01-29T03:48:18;-3.40;99.90
21318;DHT22;10818;50.830;6.524;2023-01-29T03:53:24;-3.40;99.90
21318;DHT22;10818;50.830;6.524;2023-01-29T03:58:33;-3.40;99.90
21318;DHT22;10818;50.830;6.524;2023-01-29T04:03:40;-3.50;99.90
21318;DHT22;10818;50.830;6.524;2023-01-29T04:08:46;-3.60;99.90
21318;DHT22;10818;50.830;6.524;2023-01-29T04:13:47;-3.50;99.90
21318;DHT22;10818;50.830;6.524;2023-01-29T04:18:48;-3.60;99.90
21318;DHT22;10818;50.830;6.524;2023-01-29T04:23:48;-3.60;99.90
21318;DHT22;10818;50.830;6.524;2023-01-29T04:29:07;-3.50;99.90
21318;DHT22;10818;50.830;6.524;2023-01-29T04:34:16;-3.60;99.90
21318;DHT22;10818;50.830;6.524;2023-01-29T04:39:21;-3.60;99.90
21318;DHT22;10818;50.830;6.524;2023-01-29T04:49:47;-3.50;99.90
21318;DHT22;10818;50.830;6.524;2023-01-29T05:00:13;-3.30;99.90
21318;DHT22;10818;50.830;6.524;2023-01-29T05:05:12;-3.40;99.90
21318;DHT22;10818;50.830;6.524;2023-01-29T05:10:14;-3.50;99.90
21318;DHT22;10818;50.830;6.524;2023-01-29T05:15:19;-3.60;99.90
21318;DHT22;10818;50.830;6.524;2023-01-29T05:20:22;-3.40;99.90
21318;DHT22;10818;50.830;6.524;2023-01-29T05:25:24;-3.30;99.90
21318;DHT22;10818;50.830;6.524;2023-01-29T05:30:24;-3.30;99.90
21318;DHT22;10818;50.830;6.524;2023-01-29T05:35:25;-3.40;99.90
21318;DHT22;10818;50.830;6.524;2023-01-29T05:40:27;-3.30;99.90
21318;DHT22;10818;50.830;6.524;2023-01-29T05:45:28;-3.30;99.90
21318;DHT22;10818;50.830;6.524;2023-01-29T05:50:28;-3.10;99.90
21318;DHT22;10818;50.830;6.524;2023-01-29T05:55:29;-3.00;99.90
21318;DHT22;10818;50.830;6.524;2023-01-29T06:00:29;-3.00;99.90
21318;DHT22;10818;50.830;6.524;2023-01-29T06:05:29;-2.90;99.90
21318;DHT22;10818;50.830;6.524;2023-01-29T06:10:30;-3.00;99.90
21318;DHT22;10818;50.830;6.524;2023-01-29T06:15:30;-3.00;99.90
21318;DHT22;10818;50.830;6.524;2023-01-29T06:20:31;-2.90;99.90
21318;DHT22;10818;50.830;6.524;2023-01-29T06:25:31;-2.90;99.90
21318;DHT22;10818;50.830;6.524;2023-01-29T06:30:32;-2.90;99.90
21318;DHT22;10818;50.830;6.524;2023-01-29T06:35:32;-3.00;99.90
21318;DHT22;10818;50.830;6.524;2023-01-29T06:40:33;-3.00;99.90
21318;DHT22;10818;50.830;6.524;2023-01-29T06:45:33;-3.10;99.90
21318;DHT22;10818;50.830;6.524;2023-01-29T06:50:33;-3.10;99.90
21318;DHT22;10818;50.830;6.524;2023-01-29T06:55:34;-3.00;99.90
21318;DHT22;10818;50.830;6.524;2023-01-29T07:00:34;-2.80;99.90
21318;DHT22;10818;50.830;6.524;2023-01-29T07:10:49;-2.40;99.90
21318;DHT22;10818;50.830;6.524;2023-01-29T07:15:49;-2.20;99.90
21318;DHT22;10818;50.830;6.524;2023-01-29T07:20:50;-2.00;99.90
21318;DHT22;10818;50.830;6.524;2023-01-29T07:25:50;-1.90;99.90
21318;DHT22;10818;50.830;6.524;2023-01-29T07:30:54;-1.70;99.90
21318;DHT22;10818;50.830;6.524;2023-01-29T07:35:54;-1.60;99.90
21318;DHT22;10818;50.830;6.524;2023-01-29T07:40:55;-1.40;99.90
21318;DHT22;10818;50.830;6.524;2023-01-29T07:45:55;-1.20;99.90
21318;DHT22;10818;50.830;6.524;2023-01-29T07:51:00;-1.00;99.90
21318;DHT22;10818;50.830;6.524;2023-01-29T07:56:00;-0.80;99.90
21318;DHT22;10818;50.830;6.524;2023-01-29T08:01:04;-0.50;99.90
21318;DHT22;10818;50.830;6.524;2023-01-29T08:06:04;-0.30;99.90
21318;DHT22;10818;50.830;6.524;2023-01-29T08:11:07;-0.10;99.90
21318;DHT22;10818;50.830;6.524;2023-01-29T08:16:07;0.10;99.90
21318;DHT22;10818;50.830;6.524;2023-01-29T08:21:08;0.10;99.90
21318;DHT22;10818;50.830;6.524;2023-01-29T08:26:08;0.30;99.90
21318;DHT22;10818;50.830;6.524;2023-01-29T08:31:12;0.40;99.90
21318;DHT22;10818;50.830;6.524;2023-01-29T08:36:13;0.30;99.90
21318;DHT22;10818;50.830;6.524;2023-01-29T08:41:14;0.30;99.90
21318;DHT22;10818;50.830;6.524;2023-01-29T08:46:14;0.50;99.90
21318;DHT22;10818;50.830;6.524;2023-01-29T08:51:14;0.70;99.90
21318;DHT22;10818;50.830;6.524;2023-01-29T08:56:15;0.80;99.90
21318;DHT22;10818;50.830;6.524;2023-01-29T09:01:15;0.80;99.90
21318;DHT22;10818;50.830;6.524;2023-01-29T09:06:16;1.00;99.90
21318;DHT22;10818;50.830;6.524;2023-01-29T09:11:16;1.20;99.90
21318;DHT22;10818;50.830;6.524;2023-01-29T09:16:17;1.40;99.90
21318;DHT22;10818;50.830;6.524;2023-01-29T09:21:17;1.50;99.90
21318;DHT22;10818;50.830;6.524;2023-01-29T09:26:18;1.60;99.90
21318;DHT22;10818;50.830;6.524;2023-01-29T09:31:18;1.80;99.90
21318;DHT22;10818;50.830;6.524;2023-01-29T09:36:19;1.90;99.90
21318;DHT22;10818;50.830;6.524;2023-01-29T09:46:32;2.20;99.90
21318;DHT22;10818;50.830;6.524;2023-01-29T09:51:36;2.20;99.90
21318;DHT22;10818;50.830;6.524;2023-01-29T09:56:39;2.20;99.90
21318;DHT22;10818;50.830;6.524;2023-01-29T10:01:49;2.20;99.90
21318;DHT22;10818;50.830;6.524;2023-01-29T10:12:03;2.90;99.90
21318;DHT22;10818;50.830;6.524;2023-01-29T10:27:31;3.30;99.90
21318;DHT22;10818;50.830;6.524;2023-01-29T10:32:33;3.30;99.90
21318;DHT22;10818;50.830;6.524;2023-01-29T10:37:41;3.50;99.90
21318;DHT22;10818;50.830;6.524;2023-01-29T10:42:43;3.90;99.90
21318;DHT22;10818;50.830;6.524;2023-01-29T10:53:07;4.30;99.90
21318;DHT22;10818;50.830;6.524;2023-01-29T11:03:31;4.90;99.90
21318;DHT22;10818;50.830;6.524;2023-01-29T11:13:58;5.00;99.90
21318;DHT22;10818;50.830;6.524;2023-01-29T11:18:59;5.40;99.90
21318;DHT22;10818;50.830;6.524;2023-01-29T11:24:19;5.50;99.90
21318;DHT22;10818;50.830;6.524;2023-01-29T11:34:29;5.60;99.90
21318;DHT22;10818;50.830;6.524;2023-01-29T11:39:32;5.70;99.90
21318;DHT22;10818;50.830;6.524;2023-01-29T11:44:34;5.80;99.90
21318;DHT22;10818;50.830;6.524;2023-01-29T11:49:36;5.80;99.90
21318;DHT22;10818;50.830;6.524;2023-01-29T11:54:39;5.90;99.90
21318;DHT22;10818;50.830;6.524;2023-01-29T11:59:44;5.90;99.90
21318;DHT22;10818;50.830;6.524;2023-01-29T12:04:48;5.90;99.90
21318;DHT22;10818;50.830;6.524;2023-01-29T12:09:52;6.00;99.90
21318;DHT22;10818;50.830;6.524;2023-01-29T12:20:13;6.00;99.90
21318;DHT22;10818;50.830;6.524;2023-01-29T12:25:23;5.90;99.90
21318;DHT22;10818;50.830;6.524;2023-01-29T12:40:31;6.10;99.90
21318;DHT22;10818;50.830;6.524;2023-01-29T12:45:34;6.10;99.90
21318;DHT22;10818;50.830;6.524;2023-01-29T12:50:35;6.10;99.90
21318;DHT22;10818;50.830;6.524;2023-01-29T12:55:38;6.00;99.90
21318;DHT22;10818;50.830;6.524;2023-01-29T13:00:42;6.00;99.90
21318;DHT22;10818;50.830;6.524;2023-01-29T13:05:44;5.90;99.90
21318;DHT22;10818;50.830;6.524;2023-01-29T13:10:47;5.70;99.90
21318;DHT22;10818;50.830;6.524;2023-01-29T13:15:48;5.70;99.90
21318;DHT22;10818;50.830;6.524;2023-01-29T13:20:49;5.70;99.90
21318;DHT22;10818;50.830;6.524;2023-01-29T13:25:52;5.50;99.90
21318;DHT22;10818;50.830;6.524;2023-01-29T13:31:21;5.50;99.90
21318;DHT22;10818;50.830;6.524;2023-01-29T13:36:24;5.60;99.90
21318;DHT22;10818;50.830;6.524;2023-01-29T13:41:30;5.30;99.90
21318;DHT22;10818;50.830;6.524;2023-01-29T13:46:31;5.20;99.90
21318;DHT22;10818;50.830;6.524;2023-01-29T13:51:33;5.00;99.90
21318;DHT22;10818;50.830;6.524;2023-01-29T13:56:41;5.10;99.90
21318;DHT22;10818;50.830;6.524;2023-01-29T14:06:46;4.80;99.90
21318;DHT22;10818;50.830;6.524;2023-01-29T14:11:47;4.80;99.90
21318;DHT22;10818;50.830;6.524;2023-01-29T14:16:48;4.90;99.90
21318;DHT22;10818;50.830;6.524;2023-01-29T14:21:49;4.80;99.90
21318;DHT22;10818;50.830;6.524;2023-01-29T14:26:52;4.80;99.90
21318;DHT22;10818;50.830;6.524;2023-01-29T14:31:56;4.70;99.90
21318;DHT22;10818;50.830;6.524;2023-01-29T14:37:00;4.60;99.90
21318;DHT22;10818;50.830;6.524;2023-01-29T14:42:02;4.60;99.90
21318;DHT22;10818;50.830;6.524;2023-01-29T14:47:03;4.60;99.90
21318;DHT22;10818;50.830;6.524;2023-01-29T14:52:04;4.60;99.90
21318;DHT22;10818;50.830;6.524;2023-01-29T14:57:05;4.60;99.90
21318;DHT22;10818;50.830;6.524;2023-01-29T15:02:15;4.50;99.90
21318;DHT22;10818;50.830;6.524;2023-01-29T15:07:26;4.40;99.90
21318;DHT22;10818;50.830;6.524;2023-01-29T15:12:35;4.40;99.90
21318;DHT22;10818;50.830;6.524;2023-01-29T15:17:58;4.40;99.90
21318;DHT22;10818;50.830;6.524;2023-01-29T15:23:00;4.40;99.90
21318;DHT22;10818;50.830;6.524;2023-01-29T15:28:04;4.30;99.90
21318;DHT22;10818;50.830;6.524;2023-01-29T15:33:08;4.20;99.90
21318;DHT22;10818;50.830;6.524;2023-01-29T15:38:16;4.00;99.90
21318;DHT22;10818;50.830;6.524;2023-01-29T15:43:24;4.00;99.90
21318;DHT22;10818;50.830;6.524;2023-01-29T15:48:33;4.00;99.90
21318;DHT22;10818;50.830;6.524;2023-01-29T15:53:41;3.90;99.90
21318;DHT22;10818;50.830;6.524;2023-01-29T15:58:42;3.80;99.90
21318;DHT22;10818;50.830;6.524;2023-01-29T16:03:47;3.80;99.90
21318;DHT22;10818;50.830;6.524;2023-01-29T16:08:50;3.80;99.90
21318;DHT22;10818;50.830;6.524;2023-01-29T16:13:51;3.80;99.90
21318;DHT22;10818;50.830;6.524;2023-01-29T16:18:52;3.80;99.90
21318;DHT22;10818;50.830;6.524;2023-01-29T16:23:54;3.80;99.90
21318;DHT22;10818;50.830;6.524;2023-01-29T16:28:55;3.70;99.90
21318;DHT22;10818;50.830;6.524;2023-01-29T16:33:56;3.60;99.90
21318;DHT22;10818;50.830;6.524;2023-01-29T16:38:58;3.60;99.90
21318;DHT22;10818;50.830;6.524;2023-01-29T16:44:28;3.50;99.90
21318;DHT22;10818;50.830;6.524;2023-01-29T16:54:27;3.40;99.90
21318;DHT22;10818;50.830;6.524;2023-01-29T16:59:30;3.50;99.90
21318;DHT22;10818;50.830;6.524;2023-01-29T17:04:31;3.50;99.90
21318;DHT22;10818;50.830;6.524;2023-01-29T17:09:32;3.40;99.90
21318;DHT22;10818;50.830;6.524;2023-01-29T17:14:34;3.40;99.90
21318;DHT22;10818;50.830;6.524;2023-01-29T17:19:37;3.30;99.90
21318;DHT22;10818;50.830;6.524;2023-01-29T17:24:38;3.20;99.90
21318;DHT22;10818;50.830;6.524;2023-01-29T17:29:38;3.20;99.90
21318;DHT22;10818;50.830;6.524;2023-01-29T17:34:39;3.20;99.90
21318;DHT22;10818;50.830;6.524;2023-01-29T17:39:39;3.30;99.90
21318;DHT22;10818;50.830;6.524;2023-01-29T17:44:41;3.40;99.90
21318;DHT22;10818;50.830;6.524;2023-01-29T17:49:41;3.30;99.90
21318;DHT22;10818;50.830;6.524;2023-01-29T17:54:42;3.40;99.90
21318;DHT22;10818;50.830;6.524;2023-01-29T17:59:42;3.50;99.90
21318;DHT22;10818;50.830;6.524;2023-01-29T18:04:44;3.50;99.90
21318;DHT22;10818;50.830;6.524;2023-01-29T18:09:44;3.40;99.90
21318;DHT22;10818;50.830;6.524;2023-01-29T18:14:45;3.60;99.90
21318;DHT22;10818;50.830;6.524;2023-01-29T18:19:45;3.70;99.90
21318;DHT22;10818;50.830;6.524;2023-01-29T18:24:45;3.60;99.90
21318;DHT22;10818;50.830;6.524;2023-01-29T18:29:46;3.50;99.90
21318;DHT22;10818;50.830;6.524;2023-01-29T18:34:49;3.60;99.90
21318;DHT22;10818;50.830;6.524;2023-01-29T18:39:49;3.60;99.90
21318;DHT22;10818;50.830;6.524;2023-01-29T18:44:50;3.60;99.90
21318;DHT22;10818;50.830;6.524;2023-01-29T18:49:50;3.70;99.90
21318;DHT22;10818;50.830;6.524;2023-01-29T18:54:51;3.70;99.90
21318;DHT22;10818;50.830;6.524;2023-01-29T18:59:52;3.70;99.90
21318;DHT22;10818;50.830;6.524;2023-01-29T19:04:52;3.60;99.90
21318;DHT22;10818;50.830;6.524;2023-01-29T19:09:53;3.80;99.90
21318;DHT22;10818;50.830;6.524;2023-01-29T19:14:53;3.70;99.90
21318;DHT22;10818;50.830;6.524;2023-01-29T19:19:54;3.80;99.90
21318;DHT22;10818;50.830;6.524;2023-01-29T19:25:01;3.80;99.90
21318;DHT22;10818;50.830;6.524;2023-01-29T19:30:01;4.00;99.90
21318;DHT22;10818;50.830;6.524;2023-01-29T19:35:04;4.10;99.90
21318;DHT22;10818;50.830;6.524;2023-01-29T19:40:05;4.10;99.90
21318;DHT22;10818;50.830;6.524;2023-01-29T19:45:07;4.10;99.90
21318;DHT22;10818;50.830;6.524;2023-01-29T19:50:08;4.10;99.90
21318;DHT22;10818;50.830;6.524;2023-01-29T19:55:09;4.20;99.90
21318;DHT22;10818;50.830;6.524;2023-01-29T20:00:09;4.20;99.90
21318;DHT22;10818;50.830;6.524;2023-01-29T20:05:11;4.20;99.90
21318;DHT22;10818;50.830;6.524;2023-01-29T20:10:12;4.10;99.90
21318;DHT22;10818;50.830;6.524;2023-01-29T20:15:16;4.00;99.90
21318;DHT22;10818;50.830;6.524;2023-01-29T20:20:16;4.00;99.90
21318;DHT22;10818;50.830;6.524;2023-01-29T20:25:17;4.00;99.90
21318;DHT22;10818;50.830;6.524;2023-01-29T20:30:17;4.00;99.90
21318;DHT22;10818;50.830;6.524;2023-01-29T20:35:18;4.20;99.90
21318;DHT22;10818;50.830;6.524;2023-01-29T20:40:18;4.20;99.90
21318;DHT22;10818;50.830;6.524;2023-01-29T20:45:19;4.20;99.90
21318;DHT22;10818;50.830;6.524;2023-01-29T20:50:19;4.20;99.90
21318;DHT22;10818;50.830;6.524;2023-01-29T20:55:20;4.30;99.90
21318;DHT22;10818;50.830;6.524;2023-01-29T21:00:20;4.30;99.90
21318;DHT22;10818;50.830;6.524;2023-01-29T21:05:21;4.40;99.90
21318;DHT22;10818;50.830;6.524;2023-01-29T21:10:21;4.40;99.90
21318;DHT22;10818;50.830;6.524;2023-01-29T21:15:22;4.50;99.90
21318;DHT22;10818;50.830;6.524;2023-01-29T21:20:23;4.60;99.90
21318;DHT22;10818;50.830;6.524;2023-01-29T21:25:24;4.60;99.90
21318;DHT22;10818;50.830;6.524;2023-01-29T21:30:24;4.80;99.90
21318;DHT22;10818;50.830;6.524;2023-01-29T21:35:26;4.90;99.90
21318;DHT22;10818;50.830;6.524;2023-01-29T21:40:26;5.00;99.90
21318;DHT22;10818;50.830;6.524;2023-01-29T21:45:29;4.90;99.90
21318;DHT22;10818;50.830;6.524;2023-01-29T21:50:29;4.90;99.90
21318;DHT22;10818;50.830;6.524;2023-01-29T21:55:29;5.00;99.90
21318;DHT22;10818;50.830;6.524;2023-01-29T22:00:31;5.00;99.90
21318;DHT22;10818;50.830;6.524;2023-01-29T22:05:32;5.00;99.90
21318;DHT22;10818;50.830;6.524;2023-01-29T22:10:32;5.10;99.90
21318;DHT22;10818;50.830;6.524;2023-01-29T22:15:35;5.20;99.90
21318;DHT22;10818;50.830;6.524;2023-01-29T22:20:36;5.20;99.90
21318;DHT22;10818;50.830;6.524;2023-01-29T22:25:36;5.10;99.90
21318;DHT22;10818;50.830;6.524;2023-01-29T22:30:37;5.10;99.90
21318;DHT22;10818;50.830;6.524;2023-01-29T22:35:37;5.00;99.90
21318;DHT22;10818;50.830;6.524;2023-01-29T22:40:38;5.00;99.90
21318;DHT22;10818;50.830;6.524;2023-01-29T22:45:38;5.00;99.90
21318;DHT22;10818;50.830;6.524;2023-01-29T22:50:39;5.00;99.90
21318;DHT22;10818;50.830;6.524;2023-01-29T22:55:39;4.90;99.90
21318;DHT22;10818;50.830;6.524;2023-01-29T23:00:40;4.80;99.90
21318;DHT22;10818;50.830;6.524;2023-01-29T23:05:40;4.80;99.90
21318;DHT22;10818;50.830;6.524;2023-01-29T23:10:41;4.70;99.90
21318;DHT22;10818;50.830;6.524;2023-01-29T23:15:41;4.80;99.90
21318;DHT22;10818;50.830;6.524;2023-01-29T23:20:41;4.80;99.90
21318;DHT22;10818;50.830;6.524;2023-01-29T23:25:43;4.70;99.90
21318;DHT22;10818;50.830;6.524;2023-01-29T23:31:02;4.70;99.90
21318;DHT22;10818;50.830;6.524;2023-01-29T23:36:03;4.70;99.90
21318;DHT22;10818;50.830;6.524;2023-01-29T23:41:03;4.70;99.90
21318;DHT22;10818;50.830;6.524;2023-01-29T23:46:04;4.70;99.90
21318;DHT22;10818;50.830;6.524;2023-01-29T23:51:04;4.80;99.90
21318;DHT22;10818;50.830;6.524;2023-01-29T23:56:05;4.90;99.90
